sensor_id;sensor_type;location;lat;lon;timestamp;P1;durP1;ratioP1;P2;durP2;ratioP2
20042;SDS011;10182;52.896;6.496;2023-07-13T00:07:21;11.73;;;4.03;;
20042;SDS011;10182;52.896;6.496;2023-07-13T00:12:26;12.03;;;4.33;;
20042;SDS011;10182;52.896;6.496;2023-07-13T00:17:30;11.70;;;3.37;;
20042;SDS011;10182;52.896;6.496;2023-07-13T00:22:31;11.73;;;3.70;;
20042;SDS011;10182;52.896;6.496;2023-07-13T00:27:34;7.73;;;3.40;;
20042;SDS011;10182;52.896;6.496;2023-07-13T00:32:37;12.80;;;3.80;;
20042;SDS011;10182;52.896;6.496;2023-07-13T00:37:39;12.13;;;3.50;;
20042;SDS011;10182;52.896;6.496;2023-07-13T00:42:42;10.67;;;3.93;;
20042;SDS011;10182;52.896;6.496;2023-07-13T00:47:43;9.33;;;3.77;;
20042;SDS011;10182;52.896;6.496;2023-07-13T00:52:46;12.37;;;3.77;;
20042;SDS011;10182;52.896;6.496;2023-07-13T00:57:52;14.47;;;3.73;;
20042;SDS011;10182;52.896;6.496;2023-07-13T01:02:55;11.53;;;3.83;;
20042;SDS011;10182;52.896;6.496;2023-07-13T01:07:57;14.13;;;3.77;;
20042;SDS011;10182;52.896;6.496;2023-07-13T01:13:01;14.07;;;4.27;;
20042;SDS011;10182;52.896;6.496;2023-07-13T01:18:04;10.13;;;4.10;;
20042;SDS011;10182;52.896;6.496;2023-07-13T01:23:09;9.93;;;3.90;;
20042;SDS011;10182;52.896;6.496;2023-07-13T01:28:13;9.60;;;3.67;;
20042;SDS011;10182;52.896;6.496;2023-07-13T01:33:17;12.90;;;4.00;;
20042;SDS011;10182;52.896;6.496;2023-07-13T01:38:22;10.17;;;3.80;;
20042;SDS011;10182;52.896;6.496;2023-07-13T01:43:25;12.00;;;3.60;;
20042;SDS011;10182;52.896;6.496;2023-07-13T01:48:27;10.70;;;4.07;;
20042;SDS011;10182;52.896;6.496;2023-07-13T01:53:30;11.80;;;4.27;;
20042;SDS011;10182;52.896;6.496;2023-07-13T01:58:32;11.97;;;3.73;;
20042;SDS011;10182;52.896;6.496;2023-07-13T02:03:33;9.63;;;3.97;;
20042;SDS011;10182;52.896;6.496;2023-07-13T02:08:37;12.77;;;4.73;;
20042;SDS011;10182;52.896;6.496;2023-07-13T02:13:38;9.83;;;4.30;;
20042;SDS011;10182;52.896;6.496;2023-07-13T02:18:40;10.33;;;4.27;;
20042;SDS011;10182;52.896;6.496;2023-07-13T02:23:44;11.03;;;3.87;;
20042;SDS011;10182;52.896;6.496;2023-07-13T02:28:45;9.40;;;4.03;;
20042;SDS011;10182;52.896;6.496;2023-07-13T02:33:47;14.23;;;4.53;;
20042;SDS011;10182;52.896;6.496;2023-07-13T02:38:50;8.40;;;4.10;;
20042;SDS011;10182;52.896;6.496;2023-07-13T02:43:52;15.40;;;4.77;;
20042;SDS011;10182;52.896;6.496;2023-07-13T02:48:54;13.73;;;4.20;;
20042;SDS011;10182;52.896;6.496;2023-07-13T02:53:57;14.40;;;4.60;;
20042;SDS011;10182;52.896;6.496;2023-07-13T02:58:58;16.13;;;4.47;;
20042;SDS011;10182;52.896;6.496;2023-07-13T03:04:01;11.77;;;4.20;;
20042;SDS011;10182;52.896;6.496;2023-07-13T03:09:04;10.13;;;3.97;;
20042;SDS011;10182;52.896;6.496;2023-07-13T03:14:07;16.13;;;4.30;;
20042;SDS011;10182;52.896;6.496;2023-07-13T03:19:09;9.57;;;4.60;;
20042;SDS011;10182;52.896;6.496;2023-07-13T03:24:12;13.40;;;4.60;;
20042;SDS011;10182;52.896;6.496;2023-07-13T03:29:14;14.40;;;3.93;;
20042;SDS011;10182;52.896;6.496;2023-07-13T03:34:16;11.93;;;4.30;;
20042;SDS011;10182;52.896;6.496;2023-07-13T03:39:19;12.13;;;4.43;;
20042;SDS011;10182;52.896;6.496;2023-07-13T03:44:20;13.47;;;4.57;;
20042;SDS011;10182;52.896;6.496;2023-07-13T03:49:22;12.63;;;4.10;;
20042;SDS011;10182;52.896;6.496;2023-07-13T03:54:27;12.17;;;4.10;;
20042;SDS011;10182;52.896;6.496;2023-07-13T03:59:28;9.93;;;4.23;;
20042;SDS011;10182;52.896;6.496;2023-07-13T04:04:30;10.80;;;4.83;;
20042;SDS011;10182;52.896;6.496;2023-07-13T04:09:33;15.07;;;5.10;;
20042;SDS011;10182;52.896;6.496;2023-07-13T04:14:35;11.70;;;5.10;;
20042;SDS011;10182;52.896;6.496;2023-07-13T04:19:37;9.70;;;4.37;;
20042;SDS011;10182;52.896;6.496;2023-07-13T04:24:40;15.07;;;5.50;;
20042;SDS011;10182;52.896;6.496;2023-07-13T04:29:41;15.37;;;5.03;;
20042;SDS011;10182;52.896;6.496;2023-07-13T04:34:44;12.10;;;5.03;;
20042;SDS011;10182;52.896;6.496;2023-07-13T04:39:47;17.97;;;5.83;;
20042;SDS011;10182;52.896;6.496;2023-07-13T04:44:49;14.37;;;5.33;;
20042;SDS011;10182;52.896;6.496;2023-07-13T04:49:51;15.57;;;4.90;;
20042;SDS011;10182;52.896;6.496;2023-07-13T04:54:54;15.30;;;4.83;;
20042;SDS011;10182;52.896;6.496;2023-07-13T04:59:56;14.03;;;4.73;;
20042;SDS011;10182;52.896;6.496;2023-07-13T05:05:01;13.13;;;5.00;;
20042;SDS011;10182;52.896;6.496;2023-07-13T05:10:06;10.90;;;4.90;;
20042;SDS011;10182;52.896;6.496;2023-07-13T05:15:09;14.60;;;4.90;;
20042;SDS011;10182;52.896;6.496;2023-07-13T05:20:11;12.77;;;4.57;;
20042;SDS011;10182;52.896;6.496;2023-07-13T05:25:14;12.40;;;4.63;;
20042;SDS011;10182;52.896;6.496;2023-07-13T05:30:16;12.47;;;4.67;;
20042;SDS011;10182;52.896;6.496;2023-07-13T05:35:18;11.30;;;4.97;;
20042;SDS011;10182;52.896;6.496;2023-07-13T05:40:21;9.43;;;4.60;;
20042;SDS011;10182;52.896;6.496;2023-07-13T05:45:23;13.83;;;4.73;;
20042;SDS011;10182;52.896;6.496;2023-07-13T05:50:26;10.57;;;4.90;;
20042;SDS011;10182;52.896;6.496;2023-07-13T05:55:29;10.70;;;4.93;;
20042;SDS011;10182;52.896;6.496;2023-07-13T06:00:31;13.87;;;4.60;;
20042;SDS011;10182;52.896;6.496;2023-07-13T06:05:33;11.17;;;4.63;;
20042;SDS011;10182;52.896;6.496;2023-07-13T06:10:38;13.80;;;4.80;;
20042;SDS011;10182;52.896;6.496;2023-07-13T06:15:39;12.50;;;4.33;;
20042;SDS011;10182;52.896;6.496;2023-07-13T06:20:41;17.10;;;4.80;;
20042;SDS011;10182;52.896;6.496;2023-07-13T06:25:44;11.10;;;4.47;;
20042;SDS011;10182;52.896;6.496;2023-07-13T06:30:46;16.07;;;5.20;;
20042;SDS011;10182;52.896;6.496;2023-07-13T06:35:48;13.27;;;5.27;;
20042;SDS011;10182;52.896;6.496;2023-07-13T06:40:51;12.63;;;4.67;;
20042;SDS011;10182;52.896;6.496;2023-07-13T06:45:54;11.57;;;4.63;;
20042;SDS011;10182;52.896;6.496;2023-07-13T06:50:57;13.93;;;4.50;;
20042;SDS011;10182;52.896;6.496;2023-07-13T06:56:00;10.13;;;4.47;;
20042;SDS011;10182;52.896;6.496;2023-07-13T07:01:02;10.30;;;4.73;;
20042;SDS011;10182;52.896;6.496;2023-07-13T07:06:06;12.00;;;4.20;;
20042;SDS011;10182;52.896;6.496;2023-07-13T07:11:17;9.50;;;3.80;;
20042;SDS011;10182;52.896;6.496;2023-07-13T07:16:20;10.67;;;3.83;;
20042;SDS011;10182;52.896;6.496;2023-07-13T07:21:22;10.53;;;4.40;;
20042;SDS011;10182;52.896;6.496;2023-07-13T07:26:25;9.23;;;4.13;;
20042;SDS011;10182;52.896;6.496;2023-07-13T07:31:27;12.80;;;4.53;;
20042;SDS011;10182;52.896;6.496;2023-07-13T07:36:29;13.07;;;4.83;;
20042;SDS011;10182;52.896;6.496;2023-07-13T07:41:32;15.33;;;5.43;;
20042;SDS011;10182;52.896;6.496;2023-07-13T07:46:34;12.93;;;5.10;;
20042;SDS011;10182;52.896;6.496;2023-07-13T07:51:35;9.57;;;4.70;;
20042;SDS011;10182;52.896;6.496;2023-07-13T07:56:39;11.13;;;5.37;;
20042;SDS011;10182;52.896;6.496;2023-07-13T08:01:40;11.73;;;5.30;;
20042;SDS011;10182;52.896;6.496;2023-07-13T08:06:43;14.77;;;5.10;;
20042;SDS011;10182;52.896;6.496;2023-07-13T08:11:46;11.90;;;5.47;;
20042;SDS011;10182;52.896;6.496;2023-07-13T08:16:48;12.87;;;5.80;;
20042;SDS011;10182;52.896;6.496;2023-07-13T08:21:49;13.17;;;6.80;;
20042;SDS011;10182;52.896;6.496;2023-07-13T08:26:53;15.27;;;7.37;;
20042;SDS011;10182;52.896;6.496;2023-07-13T08:31:54;12.03;;;4.63;;
20042;SDS011;10182;52.896;6.496;2023-07-13T08:36:56;8.40;;;4.17;;
20042;SDS011;10182;52.896;6.496;2023-07-13T08:42:02;13.50;;;4.70;;
20042;SDS011;10182;52.896;6.496;2023-07-13T08:47:06;12.10;;;4.73;;
20042;SDS011;10182;52.896;6.496;2023-07-13T08:52:13;11.60;;;4.73;;
20042;SDS011;10182;52.896;6.496;2023-07-13T08:57:26;8.50;;;5.37;;
20042;SDS011;10182;52.896;6.496;2023-07-13T09:02:34;10.10;;;4.90;;
20042;SDS011;10182;52.896;6.496;2023-07-13T09:08:12;11.37;;;6.00;;
20042;SDS011;10182;52.896;6.496;2023-07-13T09:13:28;12.60;;;7.90;;
20042;SDS011;10182;52.896;6.496;2023-07-13T09:18:39;10.60;;;7.57;;
20042;SDS011;10182;52.896;6.496;2023-07-13T09:23:43;10.67;;;6.57;;
20042;SDS011;10182;52.896;6.496;2023-07-13T09:28:47;5.87;;;3.80;;
20042;SDS011;10182;52.896;6.496;2023-07-13T09:33:52;4.33;;;2.80;;
20042;SDS011;10182;52.896;6.496;2023-07-13T09:38:59;3.33;;;3.00;;
20042;SDS011;10182;52.896;6.496;2023-07-13T09:44:08;5.33;;;3.00;;
20042;SDS011;10182;52.896;6.496;2023-07-13T09:49:11;3.03;;;2.73;;
20042;SDS011;10182;52.896;6.496;2023-07-13T09:54:20;5.47;;;3.23;;
20042;SDS011;10182;52.896;6.496;2023-07-13T09:59:29;2.97;;;2.63;;
20042;SDS011;10182;52.896;6.496;2023-07-13T10:04:32;2.47;;;2.27;;
20042;SDS011;10182;52.896;6.496;2023-07-13T10:09:35;3.17;;;2.20;;
20042;SDS011;10182;52.896;6.496;2023-07-13T10:14:39;3.10;;;2.63;;
20042;SDS011;10182;52.896;6.496;2023-07-13T10:19:42;4.73;;;2.77;;
20042;SDS011;10182;52.896;6.496;2023-07-13T10:24:45;5.27;;;3.27;;
20042;SDS011;10182;52.896;6.496;2023-07-13T10:29:50;4.83;;;3.70;;
20042;SDS011;10182;52.896;6.496;2023-07-13T10:34:56;6.40;;;3.80;;
20042;SDS011;10182;52.896;6.496;2023-07-13T10:40:01;5.00;;;3.77;;
20042;SDS011;10182;52.896;6.496;2023-07-13T10:45:12;4.00;;;3.57;;
20042;SDS011;10182;52.896;6.496;2023-07-13T10:50:17;4.57;;;3.50;;
20042;SDS011;10182;52.896;6.496;2023-07-13T10:55:32;6.70;;;3.53;;
20042;SDS011;10182;52.896;6.496;2023-07-13T11:00:50;7.73;;;3.73;;
20042;SDS011;10182;52.896;6.496;2023-07-13T11:06:04;6.40;;;3.83;;
20042;SDS011;10182;52.896;6.496;2023-07-13T11:16:43;4.07;;;2.07;;
20042;SDS011;10182;52.896;6.496;2023-07-13T11:22:01;5.50;;;2.27;;
20042;SDS011;10182;52.896;6.496;2023-07-13T11:27:11;4.40;;;1.80;;
20042;SDS011;10182;52.896;6.496;2023-07-13T11:32:25;3.83;;;1.80;;
20042;SDS011;10182;52.896;6.496;2023-07-13T11:37:31;4.17;;;1.60;;
20042;SDS011;10182;52.896;6.496;2023-07-13T11:42:33;5.60;;;3.30;;
20042;SDS011;10182;52.896;6.496;2023-07-13T11:47:40;3.10;;;1.67;;
20042;SDS011;10182;52.896;6.496;2023-07-13T11:52:43;2.80;;;1.30;;
20042;SDS011;10182;52.896;6.496;2023-07-13T11:57:47;4.07;;;1.40;;
20042;SDS011;10182;52.896;6.496;2023-07-13T12:02:53;3.43;;;1.40;;
20042;SDS011;10182;52.896;6.496;2023-07-13T12:07:57;2.60;;;1.40;;
20042;SDS011;10182;52.896;6.496;2023-07-13T12:13:00;3.60;;;1.90;;
20042;SDS011;10182;52.896;6.496;2023-07-13T12:18:10;5.77;;;1.97;;
20042;SDS011;10182;52.896;6.496;2023-07-13T12:23:15;4.87;;;1.60;;
20042;SDS011;10182;52.896;6.496;2023-07-13T12:28:30;2.87;;;1.70;;
20042;SDS011;10182;52.896;6.496;2023-07-13T12:33:35;4.87;;;1.60;;
20042;SDS011;10182;52.896;6.496;2023-07-13T12:38:44;4.80;;;1.80;;
20042;SDS011;10182;52.896;6.496;2023-07-13T12:43:47;4.97;;;1.37;;
20042;SDS011;10182;52.896;6.496;2023-07-13T12:48:51;5.37;;;1.70;;
20042;SDS011;10182;52.896;6.496;2023-07-13T12:53:57;2.47;;;1.30;;
20042;SDS011;10182;52.896;6.496;2023-07-13T12:59:05;4.83;;;1.47;;
20042;SDS011;10182;52.896;6.496;2023-07-13T13:04:17;8.50;;;1.90;;
20042;SDS011;10182;52.896;6.496;2023-07-13T13:09:21;3.50;;;1.40;;
20042;SDS011;10182;52.896;6.496;2023-07-13T13:14:23;4.63;;;1.27;;
20042;SDS011;10182;52.896;6.496;2023-07-13T13:19:27;2.47;;;1.30;;
20042;SDS011;10182;52.896;6.496;2023-07-13T13:24:31;3.07;;;1.10;;
20042;SDS011;10182;52.896;6.496;2023-07-13T13:29:32;5.03;;;1.63;;
20042;SDS011;10182;52.896;6.496;2023-07-13T13:34:42;6.30;;;1.50;;
20042;SDS011;10182;52.896;6.496;2023-07-13T13:39:44;2.93;;;1.37;;
20042;SDS011;10182;52.896;6.496;2023-07-13T13:44:47;3.47;;;1.63;;
20042;SDS011;10182;52.896;6.496;2023-07-13T13:49:50;3.77;;;1.50;;
20042;SDS011;10182;52.896;6.496;2023-07-13T13:54:52;3.27;;;1.50;;
20042;SDS011;10182;52.896;6.496;2023-07-13T13:59:55;2.70;;;1.43;;
20042;SDS011;10182;52.896;6.496;2023-07-13T14:04:59;2.73;;;1.20;;
20042;SDS011;10182;52.896;6.496;2023-07-13T14:10:08;5.23;;;1.33;;
20042;SDS011;10182;52.896;6.496;2023-07-13T14:15:13;4.00;;;1.33;;
20042;SDS011;10182;52.896;6.496;2023-07-13T14:20:21;3.77;;;1.70;;
20042;SDS011;10182;52.896;6.496;2023-07-13T14:25:24;3.13;;;1.13;;
20042;SDS011;10182;52.896;6.496;2023-07-13T14:30:26;3.23;;;1.40;;
20042;SDS011;10182;52.896;6.496;2023-07-13T14:35:29;4.30;;;1.63;;
20042;SDS011;10182;52.896;6.496;2023-07-13T14:40:31;2.93;;;1.07;;
20042;SDS011;10182;52.896;6.496;2023-07-13T14:45:33;4.37;;;1.43;;
20042;SDS011;10182;52.896;6.496;2023-07-13T14:50:39;2.57;;;1.10;;
20042;SDS011;10182;52.896;6.496;2023-07-13T14:55:42;4.77;;;1.60;;
20042;SDS011;10182;52.896;6.496;2023-07-13T15:00:43;6.33;;;1.90;;
20042;SDS011;10182;52.896;6.496;2023-07-13T15:05:47;6.07;;;2.20;;
20042;SDS011;10182;52.896;6.496;2023-07-13T15:10:50;3.63;;;1.70;;
20042;SDS011;10182;52.896;6.496;2023-07-13T15:15:51;5.00;;;2.20;;
20042;SDS011;10182;52.896;6.496;2023-07-13T15:20:56;3.00;;;1.53;;
20042;SDS011;10182;52.896;6.496;2023-07-13T15:26:02;6.50;;;2.37;;
20042;SDS011;10182;52.896;6.496;2023-07-13T15:31:05;6.47;;;2.10;;
20042;SDS011;10182;52.896;6.496;2023-07-13T15:36:22;4.37;;;2.00;;
20042;SDS011;10182;52.896;6.496;2023-07-13T15:41:26;4.73;;;2.20;;
20042;SDS011;10182;52.896;6.496;2023-07-13T15:46:29;6.40;;;2.43;;
20042;SDS011;10182;52.896;6.496;2023-07-13T15:51:32;4.63;;;1.97;;
20042;SDS011;10182;52.896;6.496;2023-07-13T15:56:36;4.43;;;2.20;;
20042;SDS011;10182;52.896;6.496;2023-07-13T16:01:40;3.73;;;1.90;;
20042;SDS011;10182;52.896;6.496;2023-07-13T16:06:44;4.80;;;2.17;;
20042;SDS011;10182;52.896;6.496;2023-07-13T16:11:46;5.70;;;2.07;;
20042;SDS011;10182;52.896;6.496;2023-07-13T16:16:48;6.70;;;2.40;;
20042;SDS011;10182;52.896;6.496;2023-07-13T16:21:52;5.67;;;2.27;;
20042;SDS011;10182;52.896;6.496;2023-07-13T16:26:53;5.00;;;2.57;;
20042;SDS011;10182;52.896;6.496;2023-07-13T16:31:58;5.63;;;2.30;;
20042;SDS011;10182;52.896;6.496;2023-07-13T16:37:03;5.27;;;2.33;;
20042;SDS011;10182;52.896;6.496;2023-07-13T16:42:14;5.40;;;2.20;;
20042;SDS011;10182;52.896;6.496;2023-07-13T16:47:16;5.33;;;1.80;;
20042;SDS011;10182;52.896;6.496;2023-07-13T16:52:20;6.40;;;1.83;;
20042;SDS011;10182;52.896;6.496;2023-07-13T16:57:23;3.03;;;1.93;;
20042;SDS011;10182;52.896;6.496;2023-07-13T17:02:33;4.30;;;2.00;;
20042;SDS011;10182;52.896;6.496;2023-07-13T17:07:37;5.63;;;2.10;;
20042;SDS011;10182;52.896;6.496;2023-07-13T17:12:39;5.83;;;2.23;;
20042;SDS011;10182;52.896;6.496;2023-07-13T17:17:40;4.50;;;1.63;;
20042;SDS011;10182;52.896;6.496;2023-07-13T17:22:44;4.33;;;1.77;;
20042;SDS011;10182;52.896;6.496;2023-07-13T17:27:46;5.70;;;2.10;;
20042;SDS011;10182;52.896;6.496;2023-07-13T17:32:49;4.40;;;1.93;;
20042;SDS011;10182;52.896;6.496;2023-07-13T17:37:55;3.43;;;1.87;;
20042;SDS011;10182;52.896;6.496;2023-07-13T17:42:57;3.57;;;1.70;;
20042;SDS011;10182;52.896;6.496;2023-07-13T17:47:59;7.23;;;2.10;;
20042;SDS011;10182;52.896;6.496;2023-07-13T17:53:10;4.07;;;1.70;;
20042;SDS011;10182;52.896;6.496;2023-07-13T17:58:17;4.17;;;2.17;;
20042;SDS011;10182;52.896;6.496;2023-07-13T18:03:21;4.23;;;2.20;;
20042;SDS011;10182;52.896;6.496;2023-07-13T18:08:28;4.30;;;2.07;;
20042;SDS011;10182;52.896;6.496;2023-07-13T18:13:31;7.20;;;2.30;;
20042;SDS011;10182;52.896;6.496;2023-07-13T18:18:40;4.17;;;2.03;;
20042;SDS011;10182;52.896;6.496;2023-07-13T18:23:43;5.30;;;2.53;;
20042;SDS011;10182;52.896;6.496;2023-07-13T18:28:45;5.83;;;2.70;;
20042;SDS011;10182;52.896;6.496;2023-07-13T18:33:48;4.63;;;2.30;;
20042;SDS011;10182;52.896;6.496;2023-07-13T18:38:54;4.67;;;2.53;;
20042;SDS011;10182;52.896;6.496;2023-07-13T18:43:56;6.23;;;2.70;;
20042;SDS011;10182;52.896;6.496;2023-07-13T18:48:57;4.67;;;2.60;;
20042;SDS011;10182;52.896;6.496;2023-07-13T18:54:01;5.50;;;2.73;;
20042;SDS011;10182;52.896;6.496;2023-07-13T18:59:03;5.07;;;2.40;;
20042;SDS011;10182;52.896;6.496;2023-07-13T19:04:19;4.67;;;2.50;;
20042;SDS011;10182;52.896;6.496;2023-07-13T19:09:30;6.17;;;2.80;;
20042;SDS011;10182;52.896;6.496;2023-07-13T19:14:31;4.00;;;2.20;;
20042;SDS011;10182;52.896;6.496;2023-07-13T19:19:33;6.10;;;2.37;;
20042;SDS011;10182;52.896;6.496;2023-07-13T19:24:36;4.53;;;2.87;;
20042;SDS011;10182;52.896;6.496;2023-07-13T19:29:38;6.73;;;2.50;;
20042;SDS011;10182;52.896;6.496;2023-07-13T19:34:41;6.23;;;2.77;;
20042;SDS011;10182;52.896;6.496;2023-07-13T19:39:44;5.37;;;2.83;;
20042;SDS011;10182;52.896;6.496;2023-07-13T19:44:47;8.40;;;3.03;;
20042;SDS011;10182;52.896;6.496;2023-07-13T19:49:50;7.13;;;2.70;;
20042;SDS011;10182;52.896;6.496;2023-07-13T19:54:55;4.77;;;3.07;;
20042;SDS011;10182;52.896;6.496;2023-07-13T19:59:58;6.03;;;2.87;;
20042;SDS011;10182;52.896;6.496;2023-07-13T20:05:02;5.60;;;2.80;;
20042;SDS011;10182;52.896;6.496;2023-07-13T20:10:21;4.67;;;3.03;;
20042;SDS011;10182;52.896;6.496;2023-07-13T20:15:24;7.40;;;3.03;;
20042;SDS011;10182;52.896;6.496;2023-07-13T20:20:29;9.13;;;3.73;;
20042;SDS011;10182;52.896;6.496;2023-07-13T20:25:35;6.53;;;3.63;;
20042;SDS011;10182;52.896;6.496;2023-07-13T20:30:37;6.53;;;3.50;;
20042;SDS011;10182;52.896;6.496;2023-07-13T20:35:41;10.33;;;4.60;;
20042;SDS011;10182;52.896;6.496;2023-07-13T20:40:45;7.70;;;4.70;;
20042;SDS011;10182;52.896;6.496;2023-07-13T20:45:54;7.57;;;5.03;;
20042;SDS011;10182;52.896;6.496;2023-07-13T20:50:58;10.77;;;5.70;;
20042;SDS011;10182;52.896;6.496;2023-07-13T20:56:08;10.97;;;5.20;;
20042;SDS011;10182;52.896;6.496;2023-07-13T21:01:13;8.97;;;5.47;;
20042;SDS011;10182;52.896;6.496;2023-07-13T21:06:17;8.40;;;5.63;;
20042;SDS011;10182;52.896;6.496;2023-07-13T21:11:22;9.03;;;5.53;;
20042;SDS011;10182;52.896;6.496;2023-07-13T21:16:24;9.43;;;5.73;;
20042;SDS011;10182;52.896;6.496;2023-07-13T21:21:27;11.60;;;6.47;;
20042;SDS011;10182;52.896;6.496;2023-07-13T21:26:32;10.67;;;6.20;;
20042;SDS011;10182;52.896;6.496;2023-07-13T21:31:34;9.40;;;7.10;;
20042;SDS011;10182;52.896;6.496;2023-07-13T21:36:36;8.17;;;6.40;;
20042;SDS011;10182;52.896;6.496;2023-07-13T21:41:40;8.13;;;6.33;;
20042;SDS011;10182;52.896;6.496;2023-07-13T21:46:43;8.60;;;6.43;;
20042;SDS011;10182;52.896;6.496;2023-07-13T21:51:44;11.37;;;6.43;;
20042;SDS011;10182;52.896;6.496;2023-07-13T21:56:48;10.87;;;6.73;;
20042;SDS011;10182;52.896;6.496;2023-07-13T22:01:50;9.33;;;6.70;;
20042;SDS011;10182;52.896;6.496;2023-07-13T22:06:52;8.07;;;7.27;;
20042;SDS011;10182;52.896;6.496;2023-07-13T22:11:56;8.17;;;6.93;;
20042;SDS011;10182;52.896;6.496;2023-07-13T22:16:58;8.10;;;7.10;;
20042;SDS011;10182;52.896;6.496;2023-07-13T22:22:00;9.30;;;7.07;;
20042;SDS011;10182;52.896;6.496;2023-07-13T22:27:03;10.50;;;7.97;;
20042;SDS011;10182;52.896;6.496;2023-07-13T22:32:06;11.27;;;9.10;;
20042;SDS011;10182;52.896;6.496;2023-07-13T22:37:10;12.23;;;10.57;;
20042;SDS011;10182;52.896;6.496;2023-07-13T22:42:13;11.07;;;9.30;;
20042;SDS011;10182;52.896;6.496;2023-07-13T22:47:15;11.23;;;9.87;;
20042;SDS011;10182;52.896;6.496;2023-07-13T22:52:20;11.40;;;9.97;;
20042;SDS011;10182;52.896;6.496;2023-07-13T22:57:23;11.07;;;9.47;;
20042;SDS011;10182;52.896;6.496;2023-07-13T23:02:25;10.83;;;9.47;;
20042;SDS011;10182;52.896;6.496;2023-07-13T23:07:27;11.13;;;9.97;;
20042;SDS011;10182;52.896;6.496;2023-07-13T23:12:30;11.20;;;8.70;;
20042;SDS011;10182;52.896;6.496;2023-07-13T23:17:32;12.43;;;7.90;;
20042;SDS011;10182;52.896;6.496;2023-07-13T23:22:34;9.03;;;7.60;;
20042;SDS011;10182;52.896;6.496;2023-07-13T23:27:37;9.83;;;8.00;;
20042;SDS011;10182;52.896;6.496;2023-07-13T23:32:38;9.53;;;8.53;;
20042;SDS011;10182;52.896;6.496;2023-07-13T23:37:41;10.03;;;7.63;;
20042;SDS011;10182;52.896;6.496;2023-07-13T23:42:45;11.00;;;8.90;;
20042;SDS011;10182;52.896;6.496;2023-07-13T23:47:48;9.93;;;9.03;;
20042;SDS011;10182;52.896;6.496;2023-07-13T23:52:51;10.93;;;9.83;;
20042;SDS011;10182;52.896;6.496;2023-07-13T23:57:58;11.00;;;10.00;;
